sensor_id;sensor_type;location;lat;lon;timestamp;pressure;altitude;pressure_sealevel;temperature;humidity
33280;BME280;20403;43.114;12.434;2023-07-28T00:01:46;99048.13;;;19.51;100.00
33280;BME280;20403;43.114;12.434;2023-07-28T00:04:11;99060.31;;;19.52;100.00
33280;BME280;20403;43.114;12.434;2023-07-28T00:06:37;99070.25;;;19.61;100.00
33280;BME280;20403;43.114;12.434;2023-07-28T00:09:02;99054.16;;;19.57;100.00
33280;BME280;20403;43.114;12.434;2023-07-28T00:11:28;99071.34;;;19.55;100.00
33280;BME280;20403;43.114;12.434;2023-07-28T00:13:53;99070.38;;;19.50;100.00
33280;BME280;20403;43.114;12.434;2023-07-28T00:16:19;99062.72;;;19.49;100.00
33280;BME280;20403;43.114;12.434;2023-07-28T00:18:44;99066.56;;;19.33;100.00
33280;BME280;20403;43.114;12.434;2023-07-28T00:21:09;99072.75;;;19.23;100.00
33280;BME280;20403;43.114;12.434;2023-07-28T00:23:35;99070.19;;;19.13;100.00
33280;BME280;20403;43.114;12.434;2023-07-28T00:26:00;99069.34;;;19.17;100.00
33280;BME280;20403;43.114;12.434;2023-07-28T00:28:26;99072.75;;;19.23;100.00
33280;BME280;20403;43.114;12.434;2023-07-28T00:30:51;99075.63;;;19.26;100.00
33280;BME280;20403;43.114;12.434;2023-07-28T00:33:16;99076.38;;;19.32;100.00
33280;BME280;20403;43.114;12.434;2023-07-28T00:35:42;99069.78;;;19.29;100.00
33280;BME280;20403;43.114;12.434;2023-07-28T00:38:08;99067.94;;;19.30;100.00
33280;BME280;20403;43.114;12.434;2023-07-28T00:40:35;99065.22;;;19.35;100.00
33280;BME280;20403;43.114;12.434;2023-07-28T00:43:01;99070.00;;;19.33;100.00
33280;BME280;20403;43.114;12.434;2023-07-28T00:45:27;99066.78;;;19.36;100.00
33280;BME280;20403;43.114;12.434;2023-07-28T00:47:53;99071.34;;;19.30;100.00
33280;BME280;20403;43.114;12.434;2023-07-28T00:50:19;99064.97;;;19.31;100.00
33280;BME280;20403;43.114;12.434;2023-07-28T00:52:44;99067.88;;;19.35;100.00
33280;BME280;20403;43.114;12.434;2023-07-28T00:55:12;99057.28;;;19.35;100.00
33280;BME280;20403;43.114;12.434;2023-07-28T00:57:37;99058.38;;;19.34;100.00
33280;BME280;20403;43.114;12.434;2023-07-28T01:00:05;99051.88;;;19.21;100.00
33280;BME280;20403;43.114;12.434;2023-07-28T01:02:31;99054.59;;;19.16;100.00
33280;BME280;20403;43.114;12.434;2023-07-28T01:04:56;99056.19;;;19.12;100.00
33280;BME280;20403;43.114;12.434;2023-07-28T01:10:32;99061.44;;;19.17;100.00
33280;BME280;20403;43.114;12.434;2023-07-28T01:12:58;99060.13;;;19.15;100.00
33280;BME280;20403;43.114;12.434;2023-07-28T01:15:24;99057.75;;;19.18;100.00
33280;BME280;20403;43.114;12.434;2023-07-28T01:17:50;99051.09;;;19.21;100.00
33280;BME280;20403;43.114;12.434;2023-07-28T01:20:16;99062.97;;;19.23;100.00
33280;BME280;20403;43.114;12.434;2023-07-28T01:23:09;99060.13;;;19.15;100.00
33280;BME280;20403;43.114;12.434;2023-07-28T01:28:11;99060.53;;;19.27;100.00
33280;BME280;20403;43.114;12.434;2023-07-28T01:30:38;99050.72;;;19.33;100.00
33280;BME280;20403;43.114;12.434;2023-07-28T01:33:06;99056.91;;;19.23;100.00
33280;BME280;20403;43.114;12.434;2023-07-28T01:35:32;99057.44;;;19.20;100.00
33280;BME280;20403;43.114;12.434;2023-07-28T01:37:58;99061.53;;;19.07;100.00
33280;BME280;20403;43.114;12.434;2023-07-28T01:40:23;99061.06;;;19.00;100.00
33280;BME280;20403;43.114;12.434;2023-07-28T01:42:48;99058.94;;;19.02;100.00
33280;BME280;20403;43.114;12.434;2023-07-28T01:45:14;99066.00;;;19.12;100.00
33280;BME280;20403;43.114;12.434;2023-07-28T01:47:39;99051.19;;;19.10;100.00
33280;BME280;20403;43.114;12.434;2023-07-28T01:50:05;99046.22;;;19.04;100.00
33280;BME280;20403;43.114;12.434;2023-07-28T01:52:30;99042.72;;;19.14;100.00
33280;BME280;20403;43.114;12.434;2023-07-28T01:54:56;99036.03;;;19.21;100.00
33280;BME280;20403;43.114;12.434;2023-07-28T01:57:21;99034.47;;;19.15;100.00
33280;BME280;20403;43.114;12.434;2023-07-28T01:59:47;99049.06;;;19.13;100.00
33280;BME280;20403;43.114;12.434;2023-07-28T02:02:12;99046.97;;;19.09;100.00
33280;BME280;20403;43.114;12.434;2023-07-28T02:04:37;99043.88;;;19.02;100.00
33280;BME280;20403;43.114;12.434;2023-07-28T02:07:03;99051.00;;;19.02;100.00
33280;BME280;20403;43.114;12.434;2023-07-28T02:09:28;99056.63;;;18.95;100.00
33280;BME280;20403;43.114;12.434;2023-07-28T02:11:54;99047.66;;;18.91;100.00
33280;BME280;20403;43.114;12.434;2023-07-28T02:14:19;99047.50;;;18.77;100.00
33280;BME280;20403;43.114;12.434;2023-07-28T02:16:45;99037.84;;;18.62;100.00
33280;BME280;20403;43.114;12.434;2023-07-28T02:19:10;99049.13;;;18.68;100.00
33280;BME280;20403;43.114;12.434;2023-07-28T02:21:36;99050.97;;;18.73;100.00
33280;BME280;20403;43.114;12.434;2023-07-28T02:24:01;99051.81;;;18.63;100.00
33280;BME280;20403;43.114;12.434;2023-07-28T02:26:27;99053.88;;;18.71;100.00
33280;BME280;20403;43.114;12.434;2023-07-28T02:28:52;99047.00;;;18.70;100.00
33280;BME280;20403;43.114;12.434;2023-07-28T02:31:17;99047.81;;;18.71;100.00
33280;BME280;20403;43.114;12.434;2023-07-28T02:33:43;99047.56;;;18.67;100.00
33280;BME280;20403;43.114;12.434;2023-07-28T02:36:08;99047.63;;;18.57;100.00
33280;BME280;20403;43.114;12.434;2023-07-28T02:38:34;99053.19;;;18.55;100.00
33280;BME280;20403;43.114;12.434;2023-07-28T02:40:59;99037.31;;;18.60;100.00
33280;BME280;20403;43.114;12.434;2023-07-28T02:43:25;99034.91;;;18.64;100.00
33280;BME280;20403;43.114;12.434;2023-07-28T02:45:54;99037.75;;;18.73;100.00
33280;BME280;20403;43.114;12.434;2023-07-28T02:48:20;99046.75;;;18.72;100.00
33280;BME280;20403;43.114;12.434;2023-07-28T02:50:47;99048.34;;;18.67;100.00
33280;BME280;20403;43.114;12.434;2023-07-28T02:53:13;99043.13;;;18.57;100.00
33280;BME280;20403;43.114;12.434;2023-07-28T02:55:45;99027.91;;;18.49;100.00
33280;BME280;20403;43.114;12.434;2023-07-28T02:58:11;99040.09;;;18.40;100.00
33280;BME280;20403;43.114;12.434;2023-07-28T03:00:41;99055.97;;;18.35;100.00
33280;BME280;20403;43.114;12.434;2023-07-28T03:03:07;99057.81;;;18.34;100.00
33280;BME280;20403;43.114;12.434;2023-07-28T03:05:35;99059.16;;;18.32;100.00
33280;BME280;20403;43.114;12.434;2023-07-28T03:08:01;99056.25;;;18.33;100.00
33280;BME280;20403;43.114;12.434;2023-07-28T03:10:26;99057.03;;;18.34;100.00
33280;BME280;20403;43.114;12.434;2023-07-28T03:12:52;99051.19;;;18.37;100.00
33280;BME280;20403;43.114;12.434;2023-07-28T03:15:17;99056.53;;;18.26;100.00
33280;BME280;20403;43.114;12.434;2023-07-28T03:17:42;99047.34;;;18.19;100.00
33280;BME280;20403;43.114;12.434;2023-07-28T03:20:08;99053.16;;;18.16;100.00
33280;BME280;20403;43.114;12.434;2023-07-28T03:22:34;99043.16;;;18.13;100.00
33280;BME280;20403;43.114;12.434;2023-07-28T03:24:59;99043.72;;;18.04;100.00
33280;BME280;20403;43.114;12.434;2023-07-28T03:27:24;99047.41;;;18.09;100.00
33280;BME280;20403;43.114;12.434;2023-07-28T03:29:50;99053.47;;;18.09;100.00
33280;BME280;20403;43.114;12.434;2023-07-28T03:32:16;99050.59;;;18.05;100.00
33280;BME280;20403;43.114;12.434;2023-07-28T03:34:41;99051.16;;;17.97;100.00
33280;BME280;20403;43.114;12.434;2023-07-28T03:37:07;99058.34;;;17.87;100.00
33280;BME280;20403;43.114;12.434;2023-07-28T03:39:32;99049.38;;;17.82;100.00
33280;BME280;20403;43.114;12.434;2023-07-28T03:41:58;99047.50;;;17.78;100.00
33280;BME280;20403;43.114;12.434;2023-07-28T03:44:23;99047.00;;;17.81;100.00
33280;BME280;20403;43.114;12.434;2023-07-28T03:46:49;99049.91;;;17.79;100.00
33280;BME280;20403;43.114;12.434;2023-07-28T03:49:14;99047.53;;;17.73;100.00
33280;BME280;20403;43.114;12.434;2023-07-28T03:51:40;99058.63;;;17.64;100.00
33280;BME280;20403;43.114;12.434;2023-07-28T03:54:05;99055.75;;;17.61;100.00
33280;BME280;20403;43.114;12.434;2023-07-28T03:56:31;99053.66;;;17.63;100.00
33280;BME280;20403;43.114;12.434;2023-07-28T03:58:57;99048.88;;;17.65;100.00
33280;BME280;20403;43.114;12.434;2023-07-28T04:01:22;99060.75;;;17.62;100.00
33280;BME280;20403;43.114;12.434;2023-07-28T04:03:48;99047.84;;;17.61;100.00
33280;BME280;20403;43.114;12.434;2023-07-28T04:06:13;99053.38;;;17.59;100.00
33280;BME280;20403;43.114;12.434;2023-07-28T04:08:42;99055.50;;;17.52;100.00
33280;BME280;20403;43.114;12.434;2023-07-28T04:11:07;99056.06;;;17.44;100.00
33280;BME280;20403;43.114;12.434;2023-07-28T04:13:33;99064.78;;;17.45;100.00
33280;BME280;20403;43.114;12.434;2023-07-28T04:15:59;99069.47;;;17.53;100.00
33280;BME280;20403;43.114;12.434;2023-07-28T04:18:24;99073.16;;;17.62;100.00
33280;BME280;20403;43.114;12.434;2023-07-28T04:20:50;99075.75;;;17.67;100.00
33280;BME280;20403;43.114;12.434;2023-07-28T04:23:15;99081.84;;;17.73;100.00
33280;BME280;20403;43.114;12.434;2023-07-28T04:25:40;99086.31;;;17.72;100.00
33280;BME280;20403;43.114;12.434;2023-07-28T04:28:06;99091.28;;;17.79;100.00
33280;BME280;20403;43.114;12.434;2023-07-28T04:30:31;99091.81;;;17.86;100.00
33280;BME280;20403;43.114;12.434;2023-07-28T04:32:57;99094.72;;;17.90;100.00
33280;BME280;20403;43.114;12.434;2023-07-28T04:35:22;99085.72;;;17.96;100.00
33280;BME280;20403;43.114;12.434;2023-07-28T04:37:48;99090.66;;;18.13;100.00
33280;BME280;20403;43.114;12.434;2023-07-28T04:40:13;99087.41;;;18.31;100.00
33280;BME280;20403;43.114;12.434;2023-07-28T04:42:39;99091.31;;;18.39;100.00
33280;BME280;20403;43.114;12.434;2023-07-28T04:45:04;99089.09;;;18.56;100.00
33280;BME280;20403;43.114;12.434;2023-07-28T04:47:30;99090.31;;;18.74;100.00
33280;BME280;20403;43.114;12.434;2023-07-28T04:49:56;99096.63;;;18.78;100.00
33280;BME280;20403;43.114;12.434;2023-07-28T04:52:21;99098.97;;;18.85;100.00
33280;BME280;20403;43.114;12.434;2023-07-28T04:54:46;99094.97;;;18.87;100.00
33280;BME280;20403;43.114;12.434;2023-07-28T04:57:15;99097.81;;;18.96;100.00
33280;BME280;20403;43.114;12.434;2023-07-28T04:59:40;99102.84;;;18.98;100.00
33280;BME280;20403;43.114;12.434;2023-07-28T05:02:07;99103.38;;;18.95;100.00
33280;BME280;20403;43.114;12.434;2023-07-28T05:04:32;99100.72;;;18.95;100.00
33280;BME280;20403;43.114;12.434;2023-07-28T05:06:58;99099.63;;;19.01;100.00
33280;BME280;20403;43.114;12.434;2023-07-28T05:09:23;99100.94;;;19.03;100.00
33280;BME280;20403;43.114;12.434;2023-07-28T05:11:49;99101.41;;;19.10;100.00
33280;BME280;20403;43.114;12.434;2023-07-28T05:14:14;99108.47;;;19.20;100.00
33280;BME280;20403;43.114;12.434;2023-07-28T05:16:40;99111.06;;;19.25;100.00
33280;BME280;20403;43.114;12.434;2023-07-28T05:19:06;99105.16;;;19.34;100.00
33280;BME280;20403;43.114;12.434;2023-07-28T05:21:32;99104.00;;;19.45;100.00
33280;BME280;20403;43.114;12.434;2023-07-28T05:23:58;99107.28;;;19.61;100.00
33280;BME280;20403;43.114;12.434;2023-07-28T05:26:24;99106.59;;;19.79;100.00
33280;BME280;20403;43.114;12.434;2023-07-28T05:28:49;99113.09;;;19.87;100.00
33280;BME280;20403;43.114;12.434;2023-07-28T05:31:15;99108.22;;;19.99;100.00
33280;BME280;20403;43.114;12.434;2023-07-28T05:33:41;99107.03;;;20.10;100.00
33280;BME280;20403;43.114;12.434;2023-07-28T05:36:06;99102.78;;;20.28;100.00
33280;BME280;20403;43.114;12.434;2023-07-28T05:38:32;99105.47;;;20.47;100.00
33280;BME280;20403;43.114;12.434;2023-07-28T05:40:58;99107.56;;;20.69;100.00
33280;BME280;20403;43.114;12.434;2023-07-28T05:43:29;99115.47;;;20.88;100.00
33280;BME280;20403;43.114;12.434;2023-07-28T05:45:56;99112.59;;;21.04;100.00
33280;BME280;20403;43.114;12.434;2023-07-28T05:48:21;99118.59;;;21.09;100.00
33280;BME280;20403;43.114;12.434;2023-07-28T05:50:47;99117.22;;;21.12;100.00
33280;BME280;20403;43.114;12.434;2023-07-28T05:53:13;99109.09;;;21.22;100.00
33280;BME280;20403;43.114;12.434;2023-07-28T05:55:39;99112.84;;;21.35;100.00
33280;BME280;20403;43.114;12.434;2023-07-28T05:58:05;99120.38;;;21.47;100.00
33280;BME280;20403;43.114;12.434;2023-07-28T06:00:31;99117.91;;;21.50;100.00
33280;BME280;20403;43.114;12.434;2023-07-28T06:02:56;99126.38;;;21.52;100.00
33280;BME280;20403;43.114;12.434;2023-07-28T06:05:22;99121.28;;;21.56;100.00
33280;BME280;20403;43.114;12.434;2023-07-28T06:07:47;99122.47;;;21.64;100.00
33280;BME280;20403;43.114;12.434;2023-07-28T06:10:13;99123.53;;;21.76;100.00
33280;BME280;20403;43.114;12.434;2023-07-28T06:12:38;99125.63;;;21.79;100.00
33280;BME280;20403;43.114;12.434;2023-07-28T06:15:04;99122.47;;;21.77;100.00
33280;BME280;20403;43.114;12.434;2023-07-28T06:17:30;99122.84;;;21.85;100.00
33280;BME280;20403;43.114;12.434;2023-07-28T06:19:55;99119.44;;;21.84;100.00
33280;BME280;20403;43.114;12.434;2023-07-28T06:22:21;99124.63;;;21.89;100.00
33280;BME280;20403;43.114;12.434;2023-07-28T06:24:46;99123.25;;;21.92;100.00
33280;BME280;20403;43.114;12.434;2023-07-28T06:27:12;99122.25;;;22.01;100.00
33280;BME280;20403;43.114;12.434;2023-07-28T06:29:37;99123.53;;;22.04;100.00
33280;BME280;20403;43.114;12.434;2023-07-28T06:32:03;99126.66;;;22.06;100.00
33280;BME280;20403;43.114;12.434;2023-07-28T06:34:28;99122.66;;;22.22;100.00
33280;BME280;20403;43.114;12.434;2023-07-28T06:36:54;99131.28;;;22.42;100.00
33280;BME280;20403;43.114;12.434;2023-07-28T06:39:19;99131.84;;;22.39;100.00
33280;BME280;20403;43.114;12.434;2023-07-28T06:41:45;99134.91;;;22.46;100.00
33280;BME280;20403;43.114;12.434;2023-07-28T06:44:10;99135.56;;;22.52;100.00
33280;BME280;20403;43.114;12.434;2023-07-28T06:46:36;99132.81;;;22.57;100.00
33280;BME280;20403;43.114;12.434;2023-07-28T06:49:01;99142.94;;;22.55;100.00
33280;BME280;20403;43.114;12.434;2023-07-28T06:51:26;99144.66;;;22.51;100.00
33280;BME280;20403;43.114;12.434;2023-07-28T06:53:52;99137.81;;;22.58;100.00
33280;BME280;20403;43.114;12.434;2023-07-28T06:56:17;99137.19;;;22.75;100.00
33280;BME280;20403;43.114;12.434;2023-07-28T06:58:43;99137.31;;;22.93;100.00
33280;BME280;20403;43.114;12.434;2023-07-28T07:01:08;99148.56;;;23.12;100.00
33280;BME280;20403;43.114;12.434;2023-07-28T07:03:37;99143.72;;;23.37;100.00
33280;BME280;20403;43.114;12.434;2023-07-28T07:06:02;99151.09;;;23.40;100.00
33280;BME280;20403;43.114;12.434;2023-07-28T07:08:28;99136.50;;;23.37;100.00
33280;BME280;20403;43.114;12.434;2023-07-28T07:10:53;99142.38;;;23.48;100.00
33280;BME280;20403;43.114;12.434;2023-07-28T07:13:19;99150.31;;;23.39;100.00
33280;BME280;20403;43.114;12.434;2023-07-28T07:15:45;99140.81;;;23.56;100.00
33280;BME280;20403;43.114;12.434;2023-07-28T07:18:11;99148.72;;;23.69;100.00
33280;BME280;20403;43.114;12.434;2023-07-28T07:20:37;99158.50;;;23.83;100.00
33280;BME280;20403;43.114;12.434;2023-07-28T07:23:06;99157.78;;;24.00;100.00
33280;BME280;20403;43.114;12.434;2023-07-28T07:25:32;99156.91;;;24.22;100.00
33280;BME280;20403;43.114;12.434;2023-07-28T07:27:58;99156.13;;;24.30;100.00
33280;BME280;20403;43.114;12.434;2023-07-28T07:30:24;99159.44;;;24.44;100.00
33280;BME280;20403;43.114;12.434;2023-07-28T07:32:50;99156.19;;;24.47;100.00
33280;BME280;20403;43.114;12.434;2023-07-28T07:35:15;99163.03;;;24.40;100.00
33280;BME280;20403;43.114;12.434;2023-07-28T07:37:41;99163.81;;;24.31;100.00
33280;BME280;20403;43.114;12.434;2023-07-28T07:40:07;99164.91;;;24.39;100.00
33280;BME280;20403;43.114;12.434;2023-07-28T07:42:48;99154.09;;;24.44;100.00
33280;BME280;20403;43.114;12.434;2023-07-28T07:45:14;99153.97;;;24.58;100.00
33280;BME280;20403;43.114;12.434;2023-07-28T07:47:41;99156.34;;;24.60;100.00
33280;BME280;20403;43.114;12.434;2023-07-28T07:50:08;99149.75;;;24.66;100.00
33280;BME280;20403;43.114;12.434;2023-07-28T07:52:35;99149.75;;;24.83;100.00
33280;BME280;20403;43.114;12.434;2023-07-28T07:55:01;99141.09;;;25.12;100.00
33280;BME280;20403;43.114;12.434;2023-07-28T07:57:27;99147.06;;;25.09;100.00
33280;BME280;20403;43.114;12.434;2023-07-28T07:59:52;99141.28;;;24.90;100.00
33280;BME280;20403;43.114;12.434;2023-07-28T08:02:18;99141.44;;;24.85;100.00
33280;BME280;20403;43.114;12.434;2023-07-28T08:04:43;99138.28;;;25.00;100.00
33280;BME280;20403;43.114;12.434;2023-07-28T08:07:09;99140.16;;;25.08;100.00
33280;BME280;20403;43.114;12.434;2023-07-28T08:09:34;99147.97;;;25.40;100.00
33280;BME280;20403;43.114;12.434;2023-07-28T08:12:00;99156.28;;;25.38;100.00
33280;BME280;20403;43.114;12.434;2023-07-28T08:14:25;99157.06;;;25.39;100.00
33280;BME280;20403;43.114;12.434;2023-07-28T08:16:51;99160.03;;;25.37;100.00
33280;BME280;20403;43.114;12.434;2023-07-28T08:19:16;99170.38;;;25.47;100.00
33280;BME280;20403;43.114;12.434;2023-07-28T08:21:42;99172.31;;;25.38;100.00
33280;BME280;20403;43.114;12.434;2023-07-28T08:24:08;99179.81;;;25.45;100.00
33280;BME280;20403;43.114;12.434;2023-07-28T08:26:33;99175.75;;;25.39;100.00
33280;BME280;20403;43.114;12.434;2023-07-28T08:28:59;99175.56;;;25.52;100.00
33280;BME280;20403;43.114;12.434;2023-07-28T08:31:24;99172.72;;;26.05;100.00
33280;BME280;20403;43.114;12.434;2023-07-28T08:33:50;99181.13;;;26.15;100.00
33280;BME280;20403;43.114;12.434;2023-07-28T08:36:15;99174.75;;;25.99;100.00
33280;BME280;20403;43.114;12.434;2023-07-28T08:38:41;99187.06;;;25.91;100.00
33280;BME280;20403;43.114;12.434;2023-07-28T08:41:06;99190.66;;;25.95;100.00
33280;BME280;20403;43.114;12.434;2023-07-28T08:43:32;99181.56;;;26.17;100.00
33280;BME280;20403;43.114;12.434;2023-07-28T08:45:57;99165.75;;;26.63;100.00
33280;BME280;20403;43.114;12.434;2023-07-28T08:48:23;99162.44;;;26.99;100.00
33280;BME280;20403;43.114;12.434;2023-07-28T08:50:49;99161.44;;;27.25;100.00
33280;BME280;20403;43.114;12.434;2023-07-28T08:53:15;99161.69;;;27.11;100.00
33280;BME280;20403;43.114;12.434;2023-07-28T08:55:41;99165.41;;;26.65;100.00
33280;BME280;20403;43.114;12.434;2023-07-28T08:58:21;99152.94;;;26.69;100.00
33280;BME280;20403;43.114;12.434;2023-07-28T09:00:48;99154.16;;;26.92;100.00
33280;BME280;20403;43.114;12.434;2023-07-28T09:03:18;99136.28;;;26.84;100.00
33280;BME280;20403;43.114;12.434;2023-07-28T09:05:44;99153.59;;;26.66;100.00
33280;BME280;20403;43.114;12.434;2023-07-28T09:08:12;99151.84;;;26.70;100.00
33280;BME280;20403;43.114;12.434;2023-07-28T09:13:10;99138.47;;;26.70;100.00
33280;BME280;20403;43.114;12.434;2023-07-28T09:15:37;99127.72;;;26.91;100.00
33280;BME280;20403;43.114;12.434;2023-07-28T09:18:03;99131.91;;;26.79;100.00
33280;BME280;20403;43.114;12.434;2023-07-28T09:20:36;99145.56;;;26.66;100.00
33280;BME280;20403;43.114;12.434;2023-07-28T09:23:02;99151.34;;;26.55;100.00
33280;BME280;20403;43.114;12.434;2023-07-28T09:25:28;99152.88;;;26.56;100.00
33280;BME280;20403;43.114;12.434;2023-07-28T09:27:55;99145.97;;;26.55;100.00
33280;BME280;20403;43.114;12.434;2023-07-28T09:30:21;99142.66;;;26.92;100.00
33280;BME280;20403;43.114;12.434;2023-07-28T09:32:52;99130.00;;;27.47;100.00
33280;BME280;20403;43.114;12.434;2023-07-28T09:35:18;99120.41;;;28.07;100.00
33280;BME280;20403;43.114;12.434;2023-07-28T09:37:46;99122.09;;;28.40;100.00
33280;BME280;20403;43.114;12.434;2023-07-28T09:40:14;99119.03;;;28.25;100.00
33280;BME280;20403;43.114;12.434;2023-07-28T09:42:44;99121.38;;;28.27;100.00
33280;BME280;20403;43.114;12.434;2023-07-28T09:45:15;99140.63;;;28.04;100.00
33280;BME280;20403;43.114;12.434;2023-07-28T09:47:46;99123.16;;;28.23;100.00
33280;BME280;20403;43.114;12.434;2023-07-28T09:50:15;99111.19;;;28.73;100.00
33280;BME280;20403;43.114;12.434;2023-07-28T09:52:49;99101.28;;;29.05;100.00
33280;BME280;20403;43.114;12.434;2023-07-28T09:55:15;99098.22;;;29.35;98.07
33280;BME280;20403;43.114;12.434;2023-07-28T09:57:49;99089.72;;;29.33;96.41
33280;BME280;20403;43.114;12.434;2023-07-28T10:00:16;99085.72;;;29.43;100.00
33280;BME280;20403;43.114;12.434;2023-07-28T10:02:44;99082.31;;;29.62;89.52
33280;BME280;20403;43.114;12.434;2023-07-28T10:05:10;99091.31;;;29.85;90.69
33280;BME280;20403;43.114;12.434;2023-07-28T10:07:37;99101.13;;;29.46;89.49
33280;BME280;20403;43.114;12.434;2023-07-28T10:10:05;99104.69;;;28.74;96.36
33280;BME280;20403;43.114;12.434;2023-07-28T10:15:09;99103.00;;;28.41;100.00
33280;BME280;20403;43.114;12.434;2023-07-28T10:17:36;99085.00;;;28.54;94.03
33280;BME280;20403;43.114;12.434;2023-07-28T10:20:05;99078.06;;;28.53;93.45
33280;BME280;20403;43.114;12.434;2023-07-28T10:22:43;99077.97;;;28.37;100.00
33280;BME280;20403;43.114;12.434;2023-07-28T10:25:09;99083.06;;;28.14;99.73
33280;BME280;20403;43.114;12.434;2023-07-28T10:27:44;99084.00;;;27.81;100.00
33280;BME280;20403;43.114;12.434;2023-07-28T10:30:12;99080.88;;;27.67;100.00
33280;BME280;20403;43.114;12.434;2023-07-28T10:32:48;99076.41;;;27.59;100.00
33280;BME280;20403;43.114;12.434;2023-07-28T10:35:25;99080.88;;;27.67;100.00
33280;BME280;20403;43.114;12.434;2023-07-28T10:37:53;99074.66;;;27.88;100.00
33280;BME280;20403;43.114;12.434;2023-07-28T10:42:47;99064.56;;;28.94;100.00
33280;BME280;20403;43.114;12.434;2023-07-28T10:45:13;99064.66;;;29.45;95.99
33280;BME280;20403;43.114;12.434;2023-07-28T10:47:40;99058.69;;;29.36;81.07
33280;BME280;20403;43.114;12.434;2023-07-28T10:50:08;99061.13;;;29.25;83.42
33280;BME280;20403;43.114;12.434;2023-07-28T10:52:34;99067.09;;;29.34;74.52
33280;BME280;20403;43.114;12.434;2023-07-28T10:55:00;99073.16;;;29.31;80.02
33280;BME280;20403;43.114;12.434;2023-07-28T10:57:25;99064.22;;;29.43;69.20
33280;BME280;20403;43.114;12.434;2023-07-28T10:59:54;99057.34;;;29.61;68.63
33280;BME280;20403;43.114;12.434;2023-07-28T11:02:19;99058.94;;;29.98;70.24
33280;BME280;20403;43.114;12.434;2023-07-28T11:04:48;99069.75;;;30.01;62.27
33280;BME280;20403;43.114;12.434;2023-07-28T11:07:14;99064.91;;;30.07;64.05
33280;BME280;20403;43.114;12.434;2023-07-28T11:09:39;99054.94;;;30.27;67.08
33280;BME280;20403;43.114;12.434;2023-07-28T11:12:08;99046.88;;;30.69;62.57
33280;BME280;20403;43.114;12.434;2023-07-28T11:14:34;99051.91;;;30.90;62.51
33280;BME280;20403;43.114;12.434;2023-07-28T11:17:00;99045.59;;;31.29;61.63
33280;BME280;20403;43.114;12.434;2023-07-28T11:19:26;99040.63;;;31.57;59.80
33280;BME280;20403;43.114;12.434;2023-07-28T11:21:52;99045.59;;;31.82;62.67
33280;BME280;20403;43.114;12.434;2023-07-28T11:24:19;99039.16;;;32.20;55.83
33280;BME280;20403;43.114;12.434;2023-07-28T11:26:45;99039.56;;;32.22;56.35
33280;BME280;20403;43.114;12.434;2023-07-28T11:29:11;99040.25;;;32.16;54.31
33280;BME280;20403;43.114;12.434;2023-07-28T11:31:37;99028.13;;;31.72;53.88
33280;BME280;20403;43.114;12.434;2023-07-28T11:34:02;99039.06;;;31.30;55.76
33280;BME280;20403;43.114;12.434;2023-07-28T11:36:29;99027.38;;;30.53;59.57
33280;BME280;20403;43.114;12.434;2023-07-28T11:38:57;99018.75;;;30.44;61.23
33280;BME280;20403;43.114;12.434;2023-07-28T11:41:24;99012.81;;;31.00;65.44
33280;BME280;20403;43.114;12.434;2023-07-28T11:43:50;99012.53;;;31.58;62.52
33280;BME280;20403;43.114;12.434;2023-07-28T11:46:36;99018.66;;;32.16;58.00
33280;BME280;20403;43.114;12.434;2023-07-28T11:51:46;99018.34;;;31.91;55.26
33280;BME280;20403;43.114;12.434;2023-07-28T11:54:15;99029.31;;;31.75;57.18
33280;BME280;20403;43.114;12.434;2023-07-28T11:56:45;99023.31;;;31.58;59.39
33280;BME280;20403;43.114;12.434;2023-07-28T11:59:13;99016.53;;;31.42;57.58
33280;BME280;20403;43.114;12.434;2023-07-28T12:01:59;99026.31;;;31.53;56.57
33280;BME280;20403;43.114;12.434;2023-07-28T12:04:29;99021.34;;;31.55;56.89
33280;BME280;20403;43.114;12.434;2023-07-28T12:09:32;99008.16;;;30.54;60.57
33280;BME280;20403;43.114;12.434;2023-07-28T12:11:58;99014.31;;;30.97;61.29
33280;BME280;20403;43.114;12.434;2023-07-28T12:14:32;99016.34;;;30.62;63.22
33280;BME280;20403;43.114;12.434;2023-07-28T12:16:59;99005.84;;;30.76;60.93
33280;BME280;20403;43.114;12.434;2023-07-28T12:19:24;99007.41;;;30.77;59.73
33280;BME280;20403;43.114;12.434;2023-07-28T12:21:50;99009.63;;;31.17;61.79
33280;BME280;20403;43.114;12.434;2023-07-28T12:24:15;99001.84;;;31.39;57.60
33280;BME280;20403;43.114;12.434;2023-07-28T12:26:40;98998.84;;;31.71;64.68
33280;BME280;20403;43.114;12.434;2023-07-28T12:29:06;98999.97;;;32.00;56.94
33280;BME280;20403;43.114;12.434;2023-07-28T12:31:31;98994.34;;;32.12;55.61
33280;BME280;20403;43.114;12.434;2023-07-28T12:33:58;99001.28;;;32.10;56.47
33280;BME280;20403;43.114;12.434;2023-07-28T12:36:23;98993.88;;;32.40;60.68
33280;BME280;20403;43.114;12.434;2023-07-28T12:38:50;98992.88;;;32.56;54.58
33280;BME280;20403;43.114;12.434;2023-07-28T12:41:15;98999.59;;;32.35;54.70
33280;BME280;20403;43.114;12.434;2023-07-28T12:43:40;98982.81;;;32.53;54.91
33280;BME280;20403;43.114;12.434;2023-07-28T12:46:06;98988.69;;;32.58;55.31
33280;BME280;20403;43.114;12.434;2023-07-28T12:48:31;98999.69;;;32.09;54.31
33280;BME280;20403;43.114;12.434;2023-07-28T12:50:57;98995.16;;;31.56;56.24
33280;BME280;20403;43.114;12.434;2023-07-28T12:53:22;99002.78;;;31.24;56.98
33280;BME280;20403;43.114;12.434;2023-07-28T12:55:48;98995.53;;;31.01;60.55
33280;BME280;20403;43.114;12.434;2023-07-28T12:58:13;98995.50;;;30.78;59.36